Terminal Aerodrome Forecast
Issued by NWS Sioux Falls, SD

Home | Current Version | Previous Version | Graphics & Text | Print | Product List | Glossary On
Versions: 1 2 3 4 5 6 7 8 9 10 11 12 13 14 15 16 17 18 19 20 21 22 23 24 25 26 27 28
000
FTUS43 KFSD 101724
TAFSUX
TAF
KSUX 101724Z 1018/1118 32012G18KT P6SM FEW250
     FM102300 30008KT P6SM FEW250
     FM110200 23005KT P6SM SCT250
     FM111100 29010KT P6SM FEW200
     FM111400 32017G25KT P6SM SCT040
     FM111600 32021G31KT P6SM BKN030=

USA.gov is the U.S. government's official web portal to all federal, state and local government web resources and services.